createdAt,value
2023-04-27T00:01:33.683Z,4.04
2023-04-27T00:04:00.559Z,3.99
2023-04-27T00:06:27.089Z,3.93
2023-04-27T00:08:53.536Z,3.82
2023-04-27T00:11:19.978Z,3.84
2023-04-27T00:13:46.690Z,3.85
2023-04-27T00:16:13.242Z,3.68
2023-04-27T00:18:39.780Z,3.81
2023-04-27T00:21:06.206Z,3.77
2023-04-27T00:23:32.602Z,3.66
2023-04-27T00:25:59.016Z,3.74
2023-04-27T00:28:25.471Z,3.59
2023-04-27T00:30:51.908Z,3.73
2023-04-27T00:33:18.364Z,3.55
2023-04-27T00:35:44.823Z,3.75
2023-04-27T00:38:11.428Z,3.70
2023-04-27T00:40:38.858Z,3.73
2023-04-27T00:43:05.478Z,3.70
2023-04-27T00:45:32.263Z,3.77
2023-04-27T00:47:59.389Z,3.64
2023-04-27T00:50:29.391Z,3.59
2023-04-27T00:52:56.596Z,3.70
2023-04-27T00:55:23.917Z,3.62
2023-04-27T00:57:50.532Z,3.52
2023-04-27T01:00:17.039Z,3.52
2023-04-27T01:02:45.912Z,3.48
2023-04-27T01:05:13.212Z,3.42
2023-04-27T01:07:40.575Z,3.43
2023-04-27T01:10:07.678Z,3.29
2023-04-27T01:12:34.222Z,3.19
2023-04-27T01:15:00.804Z,3.16
2023-04-27T01:17:27.282Z,3.20
2023-04-27T01:19:53.780Z,3.25
2023-04-27T01:22:20.206Z,2.99
2023-04-27T01:24:46.895Z,3.14
2023-04-27T01:27:13.506Z,3.26
2023-04-27T01:29:40.449Z,3.28
2023-04-27T01:32:07.326Z,3.39
2023-04-27T01:34:34.428Z,3.21
2023-04-27T01:37:01.026Z,3.16
2023-04-27T01:39:27.440Z,3.28
2023-04-27T01:41:54.370Z,3.15
2023-04-27T01:44:21.650Z,3.14
2023-04-27T01:46:48.246Z,3.16
2023-04-27T01:49:14.907Z,3.10
2023-04-27T01:51:41.806Z,3.20
2023-04-27T01:54:08.241Z,3.22
2023-04-27T01:56:34.729Z,3.12
2023-04-27T01:59:01.335Z,3.10
2023-04-27T02:01:28.001Z,3.00
2023-04-27T02:03:54.695Z,2.91
2023-04-27T02:06:21.461Z,2.81
2023-04-27T02:08:48.064Z,2.86
2023-04-27T02:11:14.688Z,2.78
2023-04-27T02:13:41.158Z,2.93
2023-04-27T02:16:07.784Z,2.76
2023-04-27T02:18:34.662Z,2.83
2023-04-27T02:21:01.363Z,2.75
2023-04-27T02:23:27.879Z,2.78
2023-04-27T02:25:54.331Z,2.58
2023-04-27T02:28:20.739Z,2.61
2023-04-27T02:30:47.722Z,2.67
2023-04-27T02:33:14.098Z,2.68
2023-04-27T02:35:40.707Z,2.51
2023-04-27T02:38:07.332Z,2.57
2023-04-27T02:40:33.971Z,2.49
2023-04-27T02:43:00.787Z,2.63
2023-04-27T02:45:27.208Z,2.50
2023-04-27T02:47:53.796Z,2.56
2023-04-27T02:50:20.615Z,2.50
2023-04-27T02:52:47.125Z,2.46
2023-04-27T02:55:13.567Z,2.39
2023-04-27T02:57:40.200Z,2.31
2023-04-27T03:00:07.669Z,2.29
2023-04-27T03:02:34.544Z,2.41
2023-04-27T03:05:01.329Z,2.41
2023-04-27T03:07:27.776Z,2.40
2023-04-27T03:09:54.232Z,2.37
2023-04-27T03:12:20.666Z,2.40
2023-04-27T03:14:47.193Z,2.37
2023-04-27T03:17:13.769Z,2.46
2023-04-27T03:19:40.165Z,2.47
2023-04-27T03:22:06.637Z,2.43
2023-04-27T03:24:33.097Z,2.34
2023-04-27T03:26:59.627Z,2.41
2023-04-27T03:29:26.063Z,2.42
2023-04-27T03:31:52.516Z,2.31
2023-04-27T03:34:18.983Z,2.42
2023-04-27T03:36:45.478Z,2.37
2023-04-27T03:39:12.136Z,2.56
2023-04-27T03:41:38.886Z,2.28
2023-04-27T03:44:05.487Z,2.36
2023-04-27T03:46:32.293Z,2.26
2023-04-27T03:48:58.892Z,2.30
2023-04-27T03:51:25.389Z,2.33
2023-04-27T03:53:51.828Z,2.30
2023-04-27T03:56:18.337Z,2.30
2023-04-27T03:58:44.822Z,2.24
2023-04-27T04:01:11.319Z,2.28
2023-04-27T04:03:37.916Z,2.33
2023-04-27T04:06:04.749Z,2.33
2023-04-27T04:08:31.310Z,2.33
2023-04-27T04:10:57.744Z,2.39
2023-04-27T04:13:24.312Z,2.33
2023-04-27T04:15:50.833Z,2.29
2023-04-27T04:18:17.396Z,2.30
2023-04-27T04:20:43.880Z,2.24
2023-04-27T04:23:10.274Z,2.19
2023-04-27T04:25:36.688Z,2.33
2023-04-27T04:28:03.234Z,2.14
2023-04-27T04:30:30.808Z,2.29
2023-04-27T04:32:57.475Z,2.18
2023-04-27T04:35:25.358Z,2.16
2023-04-27T04:37:51.865Z,2.10
2023-04-27T04:40:18.335Z,2.08
2023-04-27T04:42:44.981Z,2.12
2023-04-27T04:45:11.461Z,2.19
2023-04-27T04:47:37.953Z,2.19
2023-04-27T04:50:04.686Z,2.15
2023-04-27T04:52:31.334Z,2.24
2023-04-27T04:54:57.868Z,2.15
2023-04-27T04:57:24.468Z,2.26
2023-04-27T04:59:51.042Z,2.29
2023-04-27T05:02:17.898Z,2.45
2023-04-27T05:04:44.553Z,2.51
2023-04-27T05:07:12.011Z,2.41
2023-04-27T05:09:40.892Z,2.52
2023-04-27T05:12:07.527Z,2.47
2023-04-27T05:14:34.688Z,2.59
2023-04-27T05:17:01.661Z,2.69
2023-04-27T05:19:31.349Z,2.65
2023-04-27T05:22:01.084Z,2.70
2023-04-27T05:24:27.602Z,2.95
2023-04-27T05:26:54.282Z,3.01
2023-04-27T05:29:21.859Z,2.79
2023-04-27T05:31:48.595Z,2.99
2023-04-27T05:34:15.255Z,3.06
2023-04-27T05:36:41.831Z,3.31
2023-04-27T05:39:08.300Z,3.40
2023-04-27T05:41:34.977Z,3.21
2023-04-27T05:44:01.713Z,3.50
2023-04-27T05:46:28.219Z,3.51
2023-04-27T05:48:54.785Z,3.77
2023-04-27T05:51:21.387Z,3.61
2023-04-27T05:53:48.140Z,3.42
2023-04-27T05:56:14.772Z,3.88
2023-04-27T05:58:41.227Z,3.89
2023-04-27T06:01:08.294Z,4.23
2023-04-27T06:03:35.059Z,4.01
2023-04-27T06:06:01.712Z,4.16
2023-04-27T06:08:28.291Z,4.71
2023-04-27T06:10:54.984Z,5.27
2023-04-27T06:13:21.737Z,5.49
2023-04-27T06:15:48.436Z,5.82
2023-04-27T06:18:15.163Z,6.41
2023-04-27T06:20:41.681Z,6.35
2023-04-27T06:23:08.407Z,6.44
2023-04-27T06:25:35.062Z,6.20
2023-04-27T06:28:01.719Z,6.86
2023-04-27T06:30:28.478Z,6.58
2023-04-27T06:32:55.071Z,5.48
2023-04-27T06:35:21.716Z,5.40
2023-04-27T06:37:48.166Z,5.78
2023-04-27T06:40:14.670Z,6.36
2023-04-27T06:42:41.224Z,5.93
2023-04-27T06:45:08.120Z,6.40
2023-04-27T06:47:34.799Z,7.53
2023-04-27T06:50:01.416Z,6.87
2023-04-27T06:52:28.023Z,7.20
2023-04-27T06:54:54.550Z,7.94
2023-04-27T06:57:21.045Z,8.27
2023-04-27T06:59:47.842Z,7.73
2023-04-27T07:02:14.414Z,8.93
2023-04-27T07:04:40.920Z,9.09
2023-04-27T07:07:07.476Z,8.41
2023-04-27T07:09:34.257Z,7.93
2023-04-27T07:12:00.916Z,8.35
2023-04-27T07:14:27.453Z,8.34
2023-04-27T07:16:54.932Z,7.79
2023-04-27T07:19:21.658Z,7.68
2023-04-27T07:21:48.130Z,8.38
2023-04-27T07:24:15.135Z,8.63
2023-04-27T07:26:41.572Z,9.53
2023-04-27T07:29:18.845Z,9.09
2023-04-27T07:31:52.541Z,9.11
2023-04-27T07:34:19.092Z,9.29
2023-04-27T07:36:45.560Z,9.89
2023-04-27T07:39:12.155Z,9.25
2023-04-27T07:41:38.912Z,8.54
2023-04-27T07:44:05.527Z,9.38
2023-04-27T07:46:32.184Z,9.28
2023-04-27T07:48:58.724Z,10.16
2023-04-27T07:51:25.393Z,9.88
2023-04-27T07:53:51.999Z,9.71
2023-04-27T07:56:18.530Z,10.47
2023-04-27T07:58:44.988Z,10.36
2023-04-27T08:01:11.483Z,11.09
2023-04-27T08:03:38.224Z,9.31
2023-04-27T08:06:05.739Z,9.17
2023-04-27T08:08:32.563Z,9.55
2023-04-27T08:10:59.107Z,9.04
2023-04-27T08:13:25.686Z,9.08
2023-04-27T08:15:53.093Z,9.37
2023-04-27T08:18:19.655Z,8.95
2023-04-27T08:20:46.124Z,10.02
2023-04-27T08:23:12.628Z,9.85
2023-04-27T08:25:39.221Z,9.72
2023-04-27T08:28:05.847Z,9.60
2023-04-27T08:30:32.817Z,11.09
2023-04-27T08:32:59.496Z,12.08
2023-04-27T08:35:26.083Z,11.20
2023-04-27T08:37:52.651Z,10.27
2023-04-27T08:40:19.245Z,11.57
2023-04-27T08:42:55.386Z,10.52
2023-04-27T08:45:23.267Z,10.92
2023-04-27T08:47:50.464Z,11.09
2023-04-27T08:50:17.448Z,10.56
2023-04-27T08:52:46.027Z,11.55
2023-04-27T08:55:15.716Z,10.72
2023-04-27T08:57:54.284Z,9.82
2023-04-27T09:00:21.239Z,11.42
2023-04-27T09:02:48.939Z,11.61
2023-04-27T09:05:20.548Z,11.09
2023-04-27T09:08:16.434Z,11.82
2023-04-27T09:10:50.017Z,11.32
2023-04-27T09:13:17.241Z,10.65
2023-04-27T09:15:50.380Z,10.68
2023-04-27T09:18:22.378Z,12.04
2023-04-27T09:20:50.996Z,10.88
2023-04-27T09:23:29.989Z,12.23
2023-04-27T09:26:00.787Z,11.58
2023-04-27T09:28:28.786Z,12.00
2023-04-27T09:30:57.387Z,12.48
2023-04-27T09:33:29.725Z,12.86
2023-04-27T09:35:58.343Z,12.72
2023-04-27T09:38:25.219Z,12.32
2023-04-27T09:40:52.871Z,11.77
2023-04-27T09:43:19.775Z,12.78
2023-04-27T09:45:46.418Z,14.01
2023-04-27T09:48:13.067Z,14.02
2023-04-27T09:50:41.750Z,11.91
2023-04-27T09:53:10.699Z,13.27
2023-04-27T09:55:51.706Z,15.50
2023-04-27T09:58:37.187Z,14.52
2023-04-27T10:01:21.508Z,12.83
2023-04-27T10:04:36.405Z,11.99
2023-04-27T10:07:11.117Z,11.82
2023-04-27T10:09:41.673Z,12.40
2023-04-27T10:12:14.120Z,12.43
2023-04-27T10:14:55.057Z,12.14
2023-04-27T10:17:35.785Z,11.79
2023-04-27T10:20:04.895Z,12.40
2023-04-27T10:22:48.747Z,12.09
2023-04-27T10:25:19.325Z,13.27
2023-04-27T10:28:03.002Z,14.31
2023-04-27T10:30:35.202Z,12.54
2023-04-27T10:33:10.064Z,12.14
2023-04-27T10:35:45.783Z,11.75
2023-04-27T10:38:20.518Z,11.78
2023-04-27T10:40:58.112Z,12.57
2023-04-27T10:43:26.453Z,13.61
2023-04-27T10:45:53.549Z,12.81
2023-04-27T10:48:20.257Z,13.35
2023-04-27T10:50:46.811Z,11.79
2023-04-27T10:53:13.855Z,12.12
2023-04-27T10:55:40.636Z,12.86
2023-04-27T10:58:07.085Z,12.68
2023-04-27T11:00:39.566Z,12.73
2023-04-27T11:03:19.622Z,12.63
2023-04-27T11:05:47.881Z,12.46
2023-04-27T11:08:19.437Z,12.63
2023-04-27T11:10:52.535Z,12.58
2023-04-27T11:13:24.982Z,12.55
2023-04-27T11:15:56.038Z,12.43
2023-04-27T11:18:24.705Z,12.51
2023-04-27T11:20:54.640Z,12.22
2023-04-27T11:23:24.760Z,13.86
2023-04-27T11:25:51.390Z,13.29
2023-04-27T11:28:21.899Z,12.94
2023-04-27T11:30:56.077Z,12.79
2023-04-27T11:33:22.564Z,12.90
2023-04-27T11:35:49.101Z,12.92
2023-04-27T11:38:16.799Z,12.10
2023-04-27T11:40:43.392Z,12.58
2023-04-27T11:43:14.104Z,13.09
2023-04-27T11:45:44.205Z,14.17
2023-04-27T11:48:15.405Z,13.63
2023-04-27T11:50:46.633Z,13.33
2023-04-27T11:53:13.294Z,12.85
2023-04-27T11:55:40.649Z,13.37
2023-04-27T11:58:13.985Z,14.52
2023-04-27T12:00:40.744Z,13.40
2023-04-27T12:03:07.946Z,13.61
2023-04-27T12:05:35.753Z,13.36
2023-04-27T12:08:02.354Z,13.75
2023-04-27T12:10:30.211Z,13.29
2023-04-27T12:12:56.907Z,13.63
2023-04-27T12:15:23.812Z,13.53
2023-04-27T12:17:50.256Z,12.88
2023-04-27T12:20:16.893Z,13.33
2023-04-27T12:22:43.352Z,13.46
2023-04-27T12:25:09.938Z,14.22
2023-04-27T12:27:36.724Z,13.34
2023-04-27T12:30:03.592Z,13.41
2023-04-27T12:32:30.151Z,14.11
2023-04-27T12:34:56.645Z,13.51
2023-04-27T12:37:25.493Z,13.15
2023-04-27T12:39:53.259Z,13.75
2023-04-27T12:42:19.702Z,13.88
2023-04-27T12:44:46.188Z,13.82
2023-04-27T12:47:20.041Z,14.24
2023-04-27T12:49:54.544Z,14.32
2023-04-27T12:52:21.211Z,13.73
2023-04-27T12:54:47.815Z,13.88
2023-04-27T12:57:14.490Z,14.71
2023-04-27T12:59:43.972Z,14.43
2023-04-27T13:02:11.188Z,14.35
2023-04-27T13:04:37.874Z,13.64
2023-04-27T13:07:04.704Z,13.63
2023-04-27T13:09:31.191Z,14.00
2023-04-27T13:12:00.706Z,13.65
2023-04-27T13:14:28.085Z,13.99
2023-04-27T13:16:54.641Z,13.95
2023-04-27T13:19:21.395Z,14.90
2023-04-27T13:21:47.873Z,15.15
2023-04-27T13:24:14.757Z,15.67
2023-04-27T13:26:41.504Z,14.57
2023-04-27T13:29:08.187Z,15.75
2023-04-27T13:31:34.845Z,14.91
2023-04-27T13:34:01.817Z,14.23
2023-04-27T13:36:28.494Z,13.82
2023-04-27T13:38:54.956Z,15.27
2023-04-27T13:41:21.429Z,14.11
2023-04-27T13:43:48.010Z,14.36
2023-04-27T13:46:14.650Z,15.29
2023-04-27T13:48:41.214Z,14.84
2023-04-27T13:51:07.674Z,15.39
2023-04-27T13:53:34.312Z,14.51
2023-04-27T13:56:00.869Z,15.02
2023-04-27T13:58:28.189Z,15.61
2023-04-27T14:00:55.206Z,14.65
2023-04-27T14:03:21.978Z,14.48
2023-04-27T14:05:48.576Z,14.65
2023-04-27T14:08:15.087Z,13.86
2023-04-27T14:10:41.755Z,13.78
2023-04-27T14:13:08.541Z,14.38
2023-04-27T14:15:35.356Z,14.93
2023-04-27T14:18:02.082Z,14.42
2023-04-27T14:20:28.734Z,14.62
2023-04-27T14:22:57.140Z,14.39
2023-04-27T14:25:24.817Z,14.10
2023-04-27T14:27:51.389Z,13.62
2023-04-27T14:30:18.229Z,14.72
2023-04-27T14:32:45.062Z,14.47
2023-04-27T14:35:11.625Z,14.72
2023-04-27T14:37:38.296Z,14.60
2023-04-27T14:40:05.461Z,13.85
2023-04-27T14:42:31.969Z,13.28
2023-04-27T14:44:58.900Z,13.39
2023-04-27T14:47:25.809Z,13.86
2023-04-27T14:49:52.335Z,14.33
2023-04-27T14:52:18.813Z,13.91
2023-04-27T14:54:45.302Z,13.64
2023-04-27T14:57:11.816Z,13.92
2023-04-27T14:59:38.556Z,13.67
2023-04-27T15:02:05.493Z,13.62
2023-04-27T15:04:32.071Z,14.32
2023-04-27T15:06:58.635Z,14.52
2023-04-27T15:09:26.302Z,14.56
2023-04-27T15:11:52.885Z,14.17
2023-04-27T15:14:19.501Z,13.65
2023-04-27T15:16:45.958Z,13.46
2023-04-27T15:19:12.765Z,13.80
2023-04-27T15:21:39.482Z,13.91
2023-04-27T15:24:06.363Z,14.60
2023-04-27T15:26:32.980Z,14.04
2023-04-27T15:28:59.700Z,14.08
2023-04-27T15:31:26.231Z,14.18
2023-04-27T15:33:52.688Z,13.70
2023-04-27T15:36:19.367Z,14.09
2023-04-27T15:38:45.760Z,14.22
2023-04-27T15:41:12.324Z,13.49
2023-04-27T15:43:38.861Z,14.03
2023-04-27T15:46:06.332Z,14.72
2023-04-27T15:48:33.001Z,14.27
2023-04-27T15:50:59.463Z,14.35
2023-04-27T15:53:25.922Z,14.61
2023-04-27T15:55:52.538Z,14.63
2023-04-27T15:58:19.252Z,13.52
2023-04-27T16:00:45.774Z,13.69
2023-04-27T16:03:12.391Z,13.58
2023-04-27T16:05:39.262Z,14.39
2023-04-27T16:08:06.134Z,13.61
2023-04-27T16:10:32.753Z,13.11
2023-04-27T16:12:59.326Z,13.13
2023-04-27T16:15:25.850Z,13.40
2023-04-27T16:17:52.717Z,13.38
2023-04-27T16:20:19.308Z,13.22
2023-04-27T16:22:48.196Z,13.45
2023-04-27T16:25:14.671Z,13.18
2023-04-27T16:27:41.178Z,13.77
2023-04-27T16:30:10.555Z,13.55
2023-04-27T16:32:37.875Z,13.14
2023-04-27T16:35:04.834Z,13.33
2023-04-27T16:37:31.421Z,12.94
2023-04-27T16:39:57.931Z,12.89
2023-04-27T16:42:24.627Z,12.81
2023-04-27T16:44:51.073Z,13.25
2023-04-27T16:47:17.677Z,12.88
2023-04-27T16:49:44.470Z,12.88
2023-04-27T16:52:11.361Z,12.80
2023-04-27T16:54:37.922Z,12.36
2023-04-27T16:57:04.419Z,12.74
2023-04-27T16:59:30.943Z,12.27
2023-04-27T17:02:01.636Z,12.81
2023-04-27T17:04:32.838Z,12.28
2023-04-27T17:06:59.355Z,12.39
2023-04-27T17:09:25.976Z,12.24
2023-04-27T17:11:52.651Z,12.48
2023-04-27T17:14:19.154Z,12.24
2023-04-27T17:16:45.614Z,12.27
2023-04-27T17:19:12.373Z,12.15
2023-04-27T17:21:39.146Z,12.05
2023-04-27T17:24:06.159Z,12.04
2023-04-27T17:26:32.723Z,12.10
2023-04-27T17:28:59.518Z,12.27
2023-04-27T17:31:26.283Z,12.35
2023-04-27T17:33:53.227Z,12.22
2023-04-27T17:36:19.741Z,12.02
2023-04-27T17:38:46.512Z,12.20
2023-04-27T17:41:13.128Z,12.16
2023-04-27T17:43:39.830Z,11.90
2023-04-27T17:46:09.981Z,11.94
2023-04-27T17:48:37.029Z,12.05
2023-04-27T17:51:03.564Z,11.95
2023-04-27T17:53:30.053Z,11.76
2023-04-27T17:55:56.609Z,11.88
2023-04-27T17:58:23.190Z,11.86
2023-04-27T18:00:50.052Z,12.13
2023-04-27T18:03:16.807Z,11.93
2023-04-27T18:05:43.724Z,11.73
2023-04-27T18:08:10.963Z,11.65
2023-04-27T18:10:37.515Z,11.72
2023-04-27T18:13:04.203Z,11.73
2023-04-27T18:15:30.646Z,11.68
2023-04-27T18:17:57.325Z,11.78
2023-04-27T18:20:24.782Z,11.79
2023-04-27T18:22:52.925Z,11.69
2023-04-27T18:25:20.150Z,11.82
2023-04-27T18:27:46.860Z,12.09
2023-04-27T18:30:13.502Z,12.04
2023-04-27T18:32:40.150Z,11.79
2023-04-27T18:35:06.936Z,11.68
2023-04-27T18:37:33.747Z,11.87
2023-04-27T18:40:00.297Z,11.65
2023-04-27T18:42:26.745Z,11.60
2023-04-27T18:44:53.199Z,11.62
2023-04-27T18:47:19.825Z,11.32
2023-04-27T18:49:46.464Z,11.47
2023-04-27T18:52:12.960Z,11.47
2023-04-27T18:54:39.489Z,11.42
2023-04-27T18:57:06.359Z,11.36
2023-04-27T18:59:32.753Z,11.22
2023-04-27T19:01:59.408Z,11.32
2023-04-27T19:04:26.274Z,11.34
2023-04-27T19:06:53.316Z,11.30
2023-04-27T19:09:20.148Z,11.30
2023-04-27T19:11:49.510Z,11.21
2023-04-27T19:14:19.357Z,11.15
2023-04-27T19:16:46.077Z,11.15
2023-04-27T19:19:13.266Z,11.26
2023-04-27T19:21:40.066Z,11.00
2023-04-27T19:24:06.633Z,11.14
2023-04-27T19:26:33.182Z,11.01
2023-04-27T19:28:59.720Z,11.00
2023-04-27T19:31:26.510Z,11.08
2023-04-27T19:33:55.305Z,11.14
2023-04-27T19:36:22.403Z,11.14
2023-04-27T19:38:49.478Z,11.07
2023-04-27T19:41:16.061Z,10.57
2023-04-27T19:43:42.606Z,11.39
2023-04-27T19:46:09.623Z,10.94
2023-04-27T19:48:36.509Z,11.19
2023-04-27T19:51:07.752Z,10.93
2023-04-27T19:53:34.232Z,11.03
2023-04-27T19:56:01.129Z,10.87
2023-04-27T19:58:27.788Z,10.67
2023-04-27T20:00:54.265Z,10.51
2023-04-27T20:03:21.128Z,10.45
2023-04-27T20:05:47.855Z,10.86
2023-04-27T20:08:14.510Z,10.54
2023-04-27T20:10:41.066Z,10.61
2023-04-27T20:13:07.706Z,10.59
2023-04-27T20:15:34.257Z,10.67
2023-04-27T20:18:00.855Z,10.61
2023-04-27T20:20:27.440Z,11.00
2023-04-27T20:22:54.166Z,10.70
2023-04-27T20:25:20.995Z,10.88
2023-04-27T20:27:47.518Z,10.69
2023-04-27T20:30:14.362Z,10.53
2023-04-27T20:32:40.936Z,10.62
2023-04-27T20:35:07.998Z,10.61
2023-04-27T20:37:34.619Z,10.56
2023-04-27T20:40:01.217Z,10.42
2023-04-27T20:42:27.854Z,10.48
2023-04-27T20:44:54.563Z,10.60
2023-04-27T20:47:21.266Z,10.53
2023-04-27T20:49:47.770Z,10.54
2023-04-27T20:52:14.647Z,10.56
2023-04-27T20:54:41.184Z,10.53
2023-04-27T20:57:07.874Z,10.37
2023-04-27T20:59:34.469Z,10.39
2023-04-27T21:02:00.942Z,10.27
2023-04-27T21:04:27.710Z,10.38
2023-04-27T21:06:54.233Z,10.37
2023-04-27T21:09:20.714Z,10.25
2023-04-27T21:11:47.241Z,10.34
2023-04-27T21:14:14.151Z,10.24
2023-04-27T21:16:40.894Z,10.31
2023-04-27T21:19:07.655Z,10.29
2023-04-27T21:21:35.055Z,10.21
2023-04-27T21:24:07.822Z,10.18
2023-04-27T21:26:35.329Z,10.12
2023-04-27T21:29:02.050Z,9.81
2023-04-27T21:31:28.676Z,10.23
2023-04-27T21:33:55.343Z,10.12
2023-04-27T21:36:22.052Z,10.21
2023-04-27T21:38:48.609Z,9.99
2023-04-27T21:41:15.266Z,10.01
2023-04-27T21:43:41.851Z,9.89
2023-04-27T21:46:09.205Z,10.03
2023-04-27T21:48:35.945Z,10.13
2023-04-27T21:51:02.891Z,9.97
2023-04-27T21:53:30.226Z,10.06
2023-04-27T21:55:56.921Z,9.98
2023-04-27T21:58:23.466Z,10.01
2023-04-27T22:00:49.971Z,10.21
2023-04-27T22:03:16.575Z,10.01
2023-04-27T22:05:43.254Z,10.09
2023-04-27T22:08:09.777Z,10.06
2023-04-27T22:10:36.261Z,10.12
2023-04-27T22:13:11.468Z,10.00
2023-04-27T22:15:44.999Z,9.94
2023-04-27T22:18:11.486Z,10.13
2023-04-27T22:20:38.149Z,9.94
2023-04-27T22:23:04.670Z,9.93
2023-04-27T22:25:33.045Z,9.99
2023-04-27T22:27:59.790Z,9.94
2023-04-27T22:30:26.450Z,10.01
2023-04-27T22:32:53.141Z,9.99
2023-04-27T22:35:26.339Z,10.09
2023-04-27T22:37:57.748Z,10.04
2023-04-27T22:40:24.548Z,9.97
2023-04-27T22:42:51.437Z,9.89
2023-04-27T22:45:18.332Z,9.73
2023-04-27T22:47:45.266Z,9.83
2023-04-27T22:50:12.494Z,9.70
2023-04-27T22:52:39.843Z,9.72
2023-04-27T22:55:06.640Z,9.76
2023-04-27T22:57:33.296Z,9.76
2023-04-27T22:59:59.758Z,9.70
2023-04-27T23:02:26.351Z,9.67
2023-04-27T23:04:52.990Z,9.56
2023-04-27T23:07:19.714Z,9.47
2023-04-27T23:09:46.494Z,9.33
2023-04-27T23:12:13.050Z,9.59
2023-04-27T23:14:39.549Z,9.56
2023-04-27T23:17:06.142Z,9.16
2023-04-27T23:19:32.904Z,9.28
2023-04-27T23:22:02.283Z,9.19
2023-04-27T23:24:32.003Z,9.33
2023-04-27T23:26:58.532Z,9.41
2023-04-27T23:29:25.026Z,9.22
2023-04-27T23:31:51.669Z,9.27
2023-04-27T23:34:18.420Z,9.21
2023-04-27T23:36:45.175Z,9.26
2023-04-27T23:39:11.801Z,9.01
2023-04-27T23:41:38.361Z,8.94
2023-04-27T23:44:04.927Z,8.80
2023-04-27T23:46:31.573Z,8.85
2023-04-27T23:48:58.341Z,8.70
2023-04-27T23:51:24.831Z,8.59
2023-04-27T23:53:51.375Z,8.59
2023-04-27T23:56:20.859Z,8.69
2023-04-27T23:58:47.447Z,8.64
